sensor_id;sensor_type;location;lat;lon;timestamp;P1;durP1;ratioP1;P2;durP2;ratioP2
24557;SDS011;12726;49.148;8.582;2024-02-15T00:00:19;5.50;;;3.10;;
24557;SDS011;12726;49.148;8.582;2024-02-15T00:03:06;4.85;;;3.22;;
24557;SDS011;12726;49.148;8.582;2024-02-15T00:05:51;7.63;;;3.53;;
24557;SDS011;12726;49.148;8.582;2024-02-15T00:08:37;5.85;;;3.58;;
24557;SDS011;12726;49.148;8.582;2024-02-15T00:11:22;4.38;;;3.00;;
24557;SDS011;12726;49.148;8.582;2024-02-15T00:14:08;6.03;;;2.92;;
24557;SDS011;12726;49.148;8.582;2024-02-15T00:16:55;4.65;;;2.28;;
24557;SDS011;12726;49.148;8.582;2024-02-15T00:19:41;5.55;;;2.72;;
24557;SDS011;12726;49.148;8.582;2024-02-15T00:22:26;4.28;;;2.10;;
24557;SDS011;12726;49.148;8.582;2024-02-15T00:25:11;3.20;;;2.33;;
24557;SDS011;12726;49.148;8.582;2024-02-15T00:27:59;3.55;;;2.15;;
24557;SDS011;12726;49.148;8.582;2024-02-15T00:30:45;3.97;;;2.95;;
24557;SDS011;12726;49.148;8.582;2024-02-15T00:33:32;4.22;;;3.00;;
24557;SDS011;12726;49.148;8.582;2024-02-15T00:36:18;4.20;;;2.35;;
24557;SDS011;12726;49.148;8.582;2024-02-15T00:39:03;6.13;;;2.38;;
24557;SDS011;12726;49.148;8.582;2024-02-15T00:41:49;5.93;;;2.55;;
24557;SDS011;12726;49.148;8.582;2024-02-15T00:44:35;5.22;;;2.13;;
24557;SDS011;12726;49.148;8.582;2024-02-15T00:47:20;6.78;;;2.17;;
24557;SDS011;12726;49.148;8.582;2024-02-15T00:50:08;3.70;;;1.90;;
24557;SDS011;12726;49.148;8.582;2024-02-15T00:52:54;3.13;;;1.98;;
24557;SDS011;12726;49.148;8.582;2024-02-15T00:55:39;2.63;;;1.90;;
24557;SDS011;12726;49.148;8.582;2024-02-15T00:58:24;2.85;;;1.70;;
24557;SDS011;12726;49.148;8.582;2024-02-15T01:01:10;2.60;;;1.55;;
24557;SDS011;12726;49.148;8.582;2024-02-15T01:03:56;6.00;;;2.13;;
24557;SDS011;12726;49.148;8.582;2024-02-15T01:06:43;3.97;;;1.80;;
24557;SDS011;12726;49.148;8.582;2024-02-15T01:09:29;2.17;;;1.80;;
24557;SDS011;12726;49.148;8.582;2024-02-15T01:12:14;3.55;;;1.63;;
24557;SDS011;12726;49.148;8.582;2024-02-15T01:14:59;4.68;;;1.85;;
24557;SDS011;12726;49.148;8.582;2024-02-15T01:17:45;3.35;;;1.92;;
24557;SDS011;12726;49.148;8.582;2024-02-15T01:20:30;6.32;;;1.92;;
24557;SDS011;12726;49.148;8.582;2024-02-15T01:23:17;3.97;;;2.20;;
24557;SDS011;12726;49.148;8.582;2024-02-15T01:26:03;5.63;;;2.28;;
24557;SDS011;12726;49.148;8.582;2024-02-15T01:28:49;5.03;;;1.90;;
24557;SDS011;12726;49.148;8.582;2024-02-15T01:31:34;4.55;;;2.20;;
24557;SDS011;12726;49.148;8.582;2024-02-15T01:34:19;4.47;;;2.03;;
24557;SDS011;12726;49.148;8.582;2024-02-15T01:37:05;4.22;;;2.13;;
24557;SDS011;12726;49.148;8.582;2024-02-15T01:39:51;6.80;;;2.13;;
24557;SDS011;12726;49.148;8.582;2024-02-15T01:42:36;4.43;;;2.20;;
24557;SDS011;12726;49.148;8.582;2024-02-15T01:45:22;2.72;;;1.80;;
24557;SDS011;12726;49.148;8.582;2024-02-15T01:48:07;4.68;;;2.20;;
24557;SDS011;12726;49.148;8.582;2024-02-15T01:50:53;7.00;;;2.28;;
24557;SDS011;12726;49.148;8.582;2024-02-15T01:53:40;3.67;;;1.90;;
24557;SDS011;12726;49.148;8.582;2024-02-15T01:56:28;4.07;;;2.35;;
24557;SDS011;12726;49.148;8.582;2024-02-15T01:59:15;3.35;;;2.25;;
24557;SDS011;12726;49.148;8.582;2024-02-15T02:02:00;3.92;;;1.92;;
24557;SDS011;12726;49.148;8.582;2024-02-15T02:04:47;4.53;;;2.33;;
24557;SDS011;12726;49.148;8.582;2024-02-15T02:07:33;4.82;;;2.15;;
24557;SDS011;12726;49.148;8.582;2024-02-15T02:10:18;5.43;;;2.08;;
24557;SDS011;12726;49.148;8.582;2024-02-15T02:13:06;3.67;;;2.47;;
24557;SDS011;12726;49.148;8.582;2024-02-15T02:15:52;4.28;;;2.17;;
24557;SDS011;12726;49.148;8.582;2024-02-15T02:18:37;6.95;;;2.45;;
24557;SDS011;12726;49.148;8.582;2024-02-15T02:21:22;3.22;;;2.05;;
24557;SDS011;12726;49.148;8.582;2024-02-15T02:24:11;5.47;;;2.70;;
24557;SDS011;12726;49.148;8.582;2024-02-15T02:26:59;9.35;;;2.47;;
24557;SDS011;12726;49.148;8.582;2024-02-15T02:29:45;4.78;;;1.90;;
24557;SDS011;12726;49.148;8.582;2024-02-15T02:32:30;4.93;;;1.88;;
24557;SDS011;12726;49.148;8.582;2024-02-15T02:35:18;4.55;;;2.42;;
24557;SDS011;12726;49.148;8.582;2024-02-15T02:38:04;5.55;;;2.25;;
24557;SDS011;12726;49.148;8.582;2024-02-15T02:40:49;5.00;;;2.10;;
24557;SDS011;12726;49.148;8.582;2024-02-15T02:43:36;7.07;;;2.20;;
24557;SDS011;12726;49.148;8.582;2024-02-15T02:46:22;4.45;;;1.88;;
24557;SDS011;12726;49.148;8.582;2024-02-15T02:49:07;4.32;;;1.88;;
24557;SDS011;12726;49.148;8.582;2024-02-15T02:51:52;3.50;;;1.88;;
24557;SDS011;12726;49.148;8.582;2024-02-15T02:54:37;4.10;;;1.95;;
24557;SDS011;12726;49.148;8.582;2024-02-15T02:57:23;4.70;;;1.90;;
24557;SDS011;12726;49.148;8.582;2024-02-15T03:00:11;4.03;;;2.07;;
24557;SDS011;12726;49.148;8.582;2024-02-15T03:03:00;3.30;;;1.77;;
24557;SDS011;12726;49.148;8.582;2024-02-15T03:05:45;5.93;;;2.50;;
24557;SDS011;12726;49.148;8.582;2024-02-15T03:08:31;3.42;;;1.80;;
24557;SDS011;12726;49.148;8.582;2024-02-15T03:11:16;4.85;;;2.03;;
24557;SDS011;12726;49.148;8.582;2024-02-15T03:14:02;6.75;;;1.92;;
24557;SDS011;12726;49.148;8.582;2024-02-15T03:16:49;4.93;;;1.92;;
24557;SDS011;12726;49.148;8.582;2024-02-15T03:19:34;5.82;;;2.65;;
24557;SDS011;12726;49.148;8.582;2024-02-15T03:22:20;7.47;;;2.30;;
24557;SDS011;12726;49.148;8.582;2024-02-15T03:25:09;4.47;;;1.85;;
24557;SDS011;12726;49.148;8.582;2024-02-15T03:27:55;5.80;;;2.47;;
24557;SDS011;12726;49.148;8.582;2024-02-15T03:30:41;7.03;;;2.20;;
24557;SDS011;12726;49.148;8.582;2024-02-15T03:33:29;8.80;;;2.22;;
24557;SDS011;12726;49.148;8.582;2024-02-15T03:36:18;4.03;;;2.22;;
24557;SDS011;12726;49.148;8.582;2024-02-15T03:39:05;3.15;;;2.22;;
24557;SDS011;12726;49.148;8.582;2024-02-15T03:41:52;2.92;;;2.05;;
24557;SDS011;12726;49.148;8.582;2024-02-15T03:44:37;6.13;;;1.98;;
24557;SDS011;12726;49.148;8.582;2024-02-15T03:47:24;6.55;;;2.10;;
24557;SDS011;12726;49.148;8.582;2024-02-15T03:50:14;4.43;;;2.00;;
24557;SDS011;12726;49.148;8.582;2024-02-15T03:52:59;3.38;;;1.80;;
24557;SDS011;12726;49.148;8.582;2024-02-15T03:55:44;4.43;;;2.35;;
24557;SDS011;12726;49.148;8.582;2024-02-15T03:58:30;5.50;;;2.20;;
24557;SDS011;12726;49.148;8.582;2024-02-15T04:01:16;4.18;;;2.30;;
24557;SDS011;12726;49.148;8.582;2024-02-15T04:04:02;2.78;;;1.83;;
24557;SDS011;12726;49.148;8.582;2024-02-15T04:06:48;4.00;;;2.10;;
24557;SDS011;12726;49.148;8.582;2024-02-15T04:09:34;4.22;;;2.40;;
24557;SDS011;12726;49.148;8.582;2024-02-15T04:12:20;3.80;;;2.15;;
24557;SDS011;12726;49.148;8.582;2024-02-15T04:15:06;5.88;;;2.15;;
24557;SDS011;12726;49.148;8.582;2024-02-15T04:17:55;3.83;;;2.10;;
24557;SDS011;12726;49.148;8.582;2024-02-15T04:20:41;5.47;;;2.20;;
24557;SDS011;12726;49.148;8.582;2024-02-15T04:23:29;2.65;;;1.70;;
24557;SDS011;12726;49.148;8.582;2024-02-15T04:26:15;5.93;;;1.80;;
24557;SDS011;12726;49.148;8.582;2024-02-15T04:29:00;5.35;;;2.00;;
24557;SDS011;12726;49.148;8.582;2024-02-15T04:31:46;5.20;;;2.00;;
24557;SDS011;12726;49.148;8.582;2024-02-15T04:34:33;6.45;;;2.45;;
24557;SDS011;12726;49.148;8.582;2024-02-15T04:37:18;3.25;;;1.88;;
24557;SDS011;12726;49.148;8.582;2024-02-15T04:40:06;3.90;;;2.08;;
24557;SDS011;12726;49.148;8.582;2024-02-15T04:42:53;5.43;;;2.08;;
24557;SDS011;12726;49.148;8.582;2024-02-15T04:45:39;6.20;;;2.22;;
24557;SDS011;12726;49.148;8.582;2024-02-15T04:48:24;4.70;;;2.17;;
24557;SDS011;12726;49.148;8.582;2024-02-15T04:51:11;5.30;;;2.38;;
24557;SDS011;12726;49.148;8.582;2024-02-15T04:53:56;4.68;;;2.53;;
24557;SDS011;12726;49.148;8.582;2024-02-15T04:56:43;3.83;;;2.17;;
24557;SDS011;12726;49.148;8.582;2024-02-15T04:59:29;5.80;;;2.55;;
24557;SDS011;12726;49.148;8.582;2024-02-15T05:02:14;5.75;;;2.20;;
24557;SDS011;12726;49.148;8.582;2024-02-15T05:05:00;4.50;;;1.90;;
24557;SDS011;12726;49.148;8.582;2024-02-15T05:07:46;4.55;;;2.22;;
24557;SDS011;12726;49.148;8.582;2024-02-15T05:10:32;5.32;;;2.42;;
24557;SDS011;12726;49.148;8.582;2024-02-15T05:13:19;4.38;;;2.10;;
24557;SDS011;12726;49.148;8.582;2024-02-15T05:16:04;4.18;;;1.80;;
24557;SDS011;12726;49.148;8.582;2024-02-15T05:18:50;3.70;;;2.10;;
24557;SDS011;12726;49.148;8.582;2024-02-15T05:21:37;4.07;;;2.30;;
24557;SDS011;12726;49.148;8.582;2024-02-15T05:24:22;4.95;;;2.22;;
24557;SDS011;12726;49.148;8.582;2024-02-15T05:27:07;3.70;;;2.28;;
24557;SDS011;12726;49.148;8.582;2024-02-15T05:29:54;2.95;;;1.70;;
24557;SDS011;12726;49.148;8.582;2024-02-15T05:32:39;4.20;;;1.95;;
24557;SDS011;12726;49.148;8.582;2024-02-15T05:35:28;7.53;;;2.10;;
24557;SDS011;12726;49.148;8.582;2024-02-15T05:38:13;6.28;;;2.00;;
24557;SDS011;12726;49.148;8.582;2024-02-15T05:41:01;5.70;;;1.83;;
24557;SDS011;12726;49.148;8.582;2024-02-15T05:43:47;5.95;;;2.17;;
24557;SDS011;12726;49.148;8.582;2024-02-15T05:46:34;3.92;;;1.77;;
24557;SDS011;12726;49.148;8.582;2024-02-15T05:49:21;3.67;;;1.65;;
24557;SDS011;12726;49.148;8.582;2024-02-15T05:52:07;3.75;;;1.90;;
24557;SDS011;12726;49.148;8.582;2024-02-15T05:54:53;4.88;;;2.20;;
24557;SDS011;12726;49.148;8.582;2024-02-15T05:57:38;4.90;;;1.60;;
24557;SDS011;12726;49.148;8.582;2024-02-15T06:00:23;3.20;;;1.65;;
24557;SDS011;12726;49.148;8.582;2024-02-15T06:03:10;6.85;;;2.10;;
24557;SDS011;12726;49.148;8.582;2024-02-15T06:05:56;5.68;;;1.95;;
24557;SDS011;12726;49.148;8.582;2024-02-15T06:08:45;6.00;;;2.00;;
24557;SDS011;12726;49.148;8.582;2024-02-15T06:11:32;4.38;;;2.10;;
24557;SDS011;12726;49.148;8.582;2024-02-15T06:14:18;6.95;;;1.77;;
24557;SDS011;12726;49.148;8.582;2024-02-15T06:17:04;4.72;;;1.90;;
24557;SDS011;12726;49.148;8.582;2024-02-15T06:19:50;7.13;;;2.35;;
24557;SDS011;12726;49.148;8.582;2024-02-15T06:22:36;7.25;;;2.15;;
24557;SDS011;12726;49.148;8.582;2024-02-15T06:25:23;6.28;;;2.20;;
24557;SDS011;12726;49.148;8.582;2024-02-15T06:28:09;6.95;;;2.40;;
24557;SDS011;12726;49.148;8.582;2024-02-15T06:31:03;3.30;;;1.88;;
24557;SDS011;12726;49.148;8.582;2024-02-15T06:34:06;5.95;;;2.47;;
24557;SDS011;12726;49.148;8.582;2024-02-15T06:37:10;4.07;;;2.28;;
24557;SDS011;12726;49.148;8.582;2024-02-15T06:40:13;4.47;;;2.10;;
24557;SDS011;12726;49.148;8.582;2024-02-15T06:42:58;5.22;;;1.80;;
24557;SDS011;12726;49.148;8.582;2024-02-15T06:45:44;6.55;;;2.22;;
24557;SDS011;12726;49.148;8.582;2024-02-15T06:48:30;3.67;;;2.28;;
24557;SDS011;12726;49.148;8.582;2024-02-15T06:51:16;3.78;;;2.08;;
24557;SDS011;12726;49.148;8.582;2024-02-15T06:54:02;4.32;;;2.13;;
24557;SDS011;12726;49.148;8.582;2024-02-15T06:56:48;3.22;;;1.77;;
24557;SDS011;12726;49.148;8.582;2024-02-15T06:59:35;3.83;;;1.77;;
24557;SDS011;12726;49.148;8.582;2024-02-15T07:02:23;4.38;;;1.85;;
24557;SDS011;12726;49.148;8.582;2024-02-15T07:05:08;5.22;;;1.83;;
24557;SDS011;12726;49.148;8.582;2024-02-15T07:07:54;3.75;;;1.90;;
24557;SDS011;12726;49.148;8.582;2024-02-15T07:10:41;4.22;;;2.00;;
24557;SDS011;12726;49.148;8.582;2024-02-15T07:13:27;5.07;;;2.20;;
24557;SDS011;12726;49.148;8.582;2024-02-15T07:16:12;3.80;;;1.80;;
24557;SDS011;12726;49.148;8.582;2024-02-15T07:18:59;3.55;;;1.48;;
24557;SDS011;12726;49.148;8.582;2024-02-15T07:21:45;3.08;;;1.40;;
24557;SDS011;12726;49.148;8.582;2024-02-15T07:24:30;5.68;;;1.80;;
24557;SDS011;12726;49.148;8.582;2024-02-15T07:27:17;3.38;;;1.30;;
24557;SDS011;12726;49.148;8.582;2024-02-15T07:30:02;3.28;;;1.38;;
24557;SDS011;12726;49.148;8.582;2024-02-15T07:32:49;3.53;;;1.20;;
24557;SDS011;12726;49.148;8.582;2024-02-15T07:35:35;6.82;;;1.60;;
24557;SDS011;12726;49.148;8.582;2024-02-15T07:38:20;5.35;;;1.48;;
24557;SDS011;12726;49.148;8.582;2024-02-15T07:41:06;4.82;;;1.30;;
24557;SDS011;12726;49.148;8.582;2024-02-15T07:43:53;3.85;;;1.40;;
24557;SDS011;12726;49.148;8.582;2024-02-15T07:46:39;3.80;;;1.35;;
24557;SDS011;12726;49.148;8.582;2024-02-15T07:49:24;4.90;;;1.85;;
24557;SDS011;12726;49.148;8.582;2024-02-15T07:52:10;2.83;;;1.15;;
24557;SDS011;12726;49.148;8.582;2024-02-15T07:54:57;2.90;;;1.17;;
24557;SDS011;12726;49.148;8.582;2024-02-15T07:57:42;4.20;;;1.35;;
24557;SDS011;12726;49.148;8.582;2024-02-15T08:00:29;5.55;;;1.70;;
24557;SDS011;12726;49.148;8.582;2024-02-15T08:03:14;5.97;;;1.40;;
24557;SDS011;12726;49.148;8.582;2024-02-15T08:06:00;4.18;;;1.42;;
24557;SDS011;12726;49.148;8.582;2024-02-15T08:08:47;2.90;;;1.50;;
24557;SDS011;12726;49.148;8.582;2024-02-15T08:11:35;4.45;;;1.40;;
24557;SDS011;12726;49.148;8.582;2024-02-15T08:14:22;2.92;;;1.25;;
24557;SDS011;12726;49.148;8.582;2024-02-15T08:17:09;3.25;;;1.70;;
24557;SDS011;12726;49.148;8.582;2024-02-15T08:19:56;3.13;;;1.23;;
24557;SDS011;12726;49.148;8.582;2024-02-15T08:22:41;6.03;;;1.50;;
24557;SDS011;12726;49.148;8.582;2024-02-15T08:25:27;4.45;;;1.42;;
24557;SDS011;12726;49.148;8.582;2024-02-15T08:28:12;5.30;;;1.50;;
24557;SDS011;12726;49.148;8.582;2024-02-15T08:30:58;4.32;;;1.92;;
24557;SDS011;12726;49.148;8.582;2024-02-15T08:33:45;2.70;;;1.65;;
24557;SDS011;12726;49.148;8.582;2024-02-15T08:36:30;2.25;;;1.42;;
24557;SDS011;12726;49.148;8.582;2024-02-15T08:39:16;3.08;;;1.27;;
24557;SDS011;12726;49.148;8.582;2024-02-15T08:42:01;6.20;;;1.60;;
24557;SDS011;12726;49.148;8.582;2024-02-15T08:44:48;4.30;;;1.83;;
24557;SDS011;12726;49.148;8.582;2024-02-15T08:47:33;2.63;;;1.63;;
24557;SDS011;12726;49.148;8.582;2024-02-15T08:50:22;5.68;;;2.03;;
24557;SDS011;12726;49.148;8.582;2024-02-15T08:53:08;6.75;;;4.13;;
24557;SDS011;12726;49.148;8.582;2024-02-15T08:55:53;7.70;;;3.28;;
24557;SDS011;12726;49.148;8.582;2024-02-15T08:58:39;5.65;;;2.60;;
24557;SDS011;12726;49.148;8.582;2024-02-15T09:01:26;6.88;;;2.53;;
24557;SDS011;12726;49.148;8.582;2024-02-15T09:04:11;6.70;;;2.53;;
24557;SDS011;12726;49.148;8.582;2024-02-15T09:06:58;4.65;;;2.50;;
24557;SDS011;12726;49.148;8.582;2024-02-15T09:09:47;4.60;;;2.15;;
24557;SDS011;12726;49.148;8.582;2024-02-15T09:12:32;4.97;;;2.35;;
24557;SDS011;12726;49.148;8.582;2024-02-15T09:15:18;6.43;;;2.17;;
24557;SDS011;12726;49.148;8.582;2024-02-15T09:18:06;3.53;;;1.30;;
24557;SDS011;12726;49.148;8.582;2024-02-15T09:20:53;3.90;;;1.50;;
24557;SDS011;12726;49.148;8.582;2024-02-15T09:23:40;3.55;;;1.70;;
24557;SDS011;12726;49.148;8.582;2024-02-15T09:26:26;3.70;;;1.38;;
24557;SDS011;12726;49.148;8.582;2024-02-15T09:29:12;3.10;;;1.70;;
24557;SDS011;12726;49.148;8.582;2024-02-15T09:31:58;3.15;;;1.35;;
24557;SDS011;12726;49.148;8.582;2024-02-15T09:34:45;6.65;;;1.30;;
24557;SDS011;12726;49.148;8.582;2024-02-15T09:37:31;3.95;;;1.60;;
24557;SDS011;12726;49.148;8.582;2024-02-15T09:40:18;5.18;;;1.40;;
24557;SDS011;12726;49.148;8.582;2024-02-15T09:43:07;6.20;;;1.48;;
24557;SDS011;12726;49.148;8.582;2024-02-15T09:45:52;1.98;;;1.20;;
24557;SDS011;12726;49.148;8.582;2024-02-15T09:48:38;3.47;;;1.40;;
24557;SDS011;12726;49.148;8.582;2024-02-15T09:51:26;3.85;;;1.50;;
24557;SDS011;12726;49.148;8.582;2024-02-15T09:54:12;2.53;;;1.17;;
24557;SDS011;12726;49.148;8.582;2024-02-15T09:57:07;3.20;;;1.23;;
24557;SDS011;12726;49.148;8.582;2024-02-15T09:59:54;3.38;;;1.30;;
24557;SDS011;12726;49.148;8.582;2024-02-15T10:02:40;3.67;;;1.02;;
24557;SDS011;12726;49.148;8.582;2024-02-15T10:05:28;4.65;;;1.70;;
24557;SDS011;12726;49.148;8.582;2024-02-15T10:08:14;3.88;;;1.15;;
24557;SDS011;12726;49.148;8.582;2024-02-15T10:11:05;4.30;;;1.48;;
24557;SDS011;12726;49.148;8.582;2024-02-15T10:13:52;2.10;;;1.10;;
24557;SDS011;12726;49.148;8.582;2024-02-15T10:16:38;5.32;;;1.15;;
24557;SDS011;12726;49.148;8.582;2024-02-15T10:19:23;3.78;;;1.33;;
24557;SDS011;12726;49.148;8.582;2024-02-15T10:22:09;3.25;;;1.33;;
24557;SDS011;12726;49.148;8.582;2024-02-15T10:25:10;3.30;;;1.30;;
24557;SDS011;12726;49.148;8.582;2024-02-15T10:28:01;2.30;;;1.10;;
24557;SDS011;12726;49.148;8.582;2024-02-15T10:30:48;3.22;;;1.00;;
24557;SDS011;12726;49.148;8.582;2024-02-15T10:33:36;3.28;;;1.20;;
24557;SDS011;12726;49.148;8.582;2024-02-15T10:36:21;1.73;;;1.05;;
24557;SDS011;12726;49.148;8.582;2024-02-15T10:39:10;3.72;;;1.20;;
24557;SDS011;12726;49.148;8.582;2024-02-15T10:42:00;2.05;;;1.25;;
24557;SDS011;12726;49.148;8.582;2024-02-15T10:44:46;2.67;;;1.20;;
24557;SDS011;12726;49.148;8.582;2024-02-15T10:47:33;3.58;;;1.30;;
24557;SDS011;12726;49.148;8.582;2024-02-15T10:50:20;3.38;;;1.50;;
24557;SDS011;12726;49.148;8.582;2024-02-15T10:53:07;3.42;;;0.90;;
24557;SDS011;12726;49.148;8.582;2024-02-15T10:56:04;2.35;;;1.27;;
24557;SDS011;12726;49.148;8.582;2024-02-15T10:58:59;3.25;;;0.73;;
24557;SDS011;12726;49.148;8.582;2024-02-15T11:01:54;3.17;;;0.70;;
24557;SDS011;12726;49.148;8.582;2024-02-15T11:04:45;3.10;;;0.60;;
24557;SDS011;12726;49.148;8.582;2024-02-15T11:07:38;3.35;;;0.60;;
24557;SDS011;12726;49.148;8.582;2024-02-15T11:10:24;1.02;;;0.60;;
24557;SDS011;12726;49.148;8.582;2024-02-15T11:13:11;1.20;;;0.70;;
24557;SDS011;12726;49.148;8.582;2024-02-15T11:15:57;0.88;;;0.43;;
24557;SDS011;12726;49.148;8.582;2024-02-15T11:18:44;2.97;;;0.93;;
24557;SDS011;12726;49.148;8.582;2024-02-15T11:24:47;4.82;;;0.90;;
24557;SDS011;12726;49.148;8.582;2024-02-15T11:27:33;2.63;;;0.93;;
24557;SDS011;12726;49.148;8.582;2024-02-15T11:30:27;3.30;;;0.52;;
24557;SDS011;12726;49.148;8.582;2024-02-15T11:33:25;2.35;;;0.60;;
24557;SDS011;12726;49.148;8.582;2024-02-15T11:36:13;2.75;;;0.73;;
24557;SDS011;12726;49.148;8.582;2024-02-15T11:39:02;2.85;;;0.60;;
24557;SDS011;12726;49.148;8.582;2024-02-15T11:42:25;3.58;;;1.25;;
24557;SDS011;12726;49.148;8.582;2024-02-15T11:45:13;2.50;;;0.50;;
24557;SDS011;12726;49.148;8.582;2024-02-15T11:48:02;1.75;;;0.80;;
24557;SDS011;12726;49.148;8.582;2024-02-15T11:50:54;3.57;;;0.90;;
24557;SDS011;12726;49.148;8.582;2024-02-15T11:53:39;0.80;;;0.50;;
24557;SDS011;12726;49.148;8.582;2024-02-15T11:56:26;1.88;;;0.70;;
24557;SDS011;12726;49.148;8.582;2024-02-15T11:59:12;2.00;;;0.60;;
24557;SDS011;12726;49.148;8.582;2024-02-15T12:02:12;2.25;;;0.68;;
24557;SDS011;12726;49.148;8.582;2024-02-15T12:05:16;2.13;;;0.75;;
24557;SDS011;12726;49.148;8.582;2024-02-15T12:08:20;1.73;;;0.60;;
24557;SDS011;12726;49.148;8.582;2024-02-15T12:11:23;1.13;;;0.57;;
24557;SDS011;12726;49.148;8.582;2024-02-15T12:14:27;1.33;;;0.57;;
24557;SDS011;12726;49.148;8.582;2024-02-15T12:17:30;0.70;;;0.55;;
24557;SDS011;12726;49.148;8.582;2024-02-15T12:20:33;2.20;;;0.80;;
24557;SDS011;12726;49.148;8.582;2024-02-15T12:23:18;2.05;;;0.70;;
24557;SDS011;12726;49.148;8.582;2024-02-15T12:26:04;1.05;;;0.50;;
24557;SDS011;12726;49.148;8.582;2024-02-15T12:28:52;1.50;;;0.70;;
24557;SDS011;12726;49.148;8.582;2024-02-15T12:31:41;1.65;;;0.60;;
24557;SDS011;12726;49.148;8.582;2024-02-15T12:34:28;3.35;;;1.23;;
24557;SDS011;12726;49.148;8.582;2024-02-15T12:37:13;1.35;;;0.55;;
24557;SDS011;12726;49.148;8.582;2024-02-15T12:39:58;1.00;;;0.70;;
24557;SDS011;12726;49.148;8.582;2024-02-15T12:42:59;2.17;;;0.85;;
24557;SDS011;12726;49.148;8.582;2024-02-15T12:45:45;3.28;;;0.90;;
24557;SDS011;12726;49.148;8.582;2024-02-15T12:48:32;1.67;;;0.70;;
24557;SDS011;12726;49.148;8.582;2024-02-15T12:51:19;3.08;;;0.70;;
24557;SDS011;12726;49.148;8.582;2024-02-15T12:54:08;1.42;;;0.60;;
24557;SDS011;12726;49.148;8.582;2024-02-15T12:56:59;4.28;;;0.85;;
24557;SDS011;12726;49.148;8.582;2024-02-15T12:59:52;1.48;;;0.80;;
24557;SDS011;12726;49.148;8.582;2024-02-15T13:02:38;3.42;;;0.70;;
24557;SDS011;12726;49.148;8.582;2024-02-15T13:05:26;4.00;;;0.77;;
24557;SDS011;12726;49.148;8.582;2024-02-15T13:08:12;2.35;;;0.80;;
24557;SDS011;12726;49.148;8.582;2024-02-15T13:10:58;2.47;;;0.60;;
24557;SDS011;12726;49.148;8.582;2024-02-15T13:13:43;2.35;;;0.60;;
24557;SDS011;12726;49.148;8.582;2024-02-15T13:16:29;2.25;;;0.73;;
24557;SDS011;12726;49.148;8.582;2024-02-15T13:19:14;3.33;;;0.68;;
24557;SDS011;12726;49.148;8.582;2024-02-15T13:22:01;1.75;;;0.75;;
24557;SDS011;12726;49.148;8.582;2024-02-15T13:24:46;2.45;;;0.70;;
24557;SDS011;12726;49.148;8.582;2024-02-15T13:27:32;2.42;;;0.70;;
24557;SDS011;12726;49.148;8.582;2024-02-15T13:30:17;1.52;;;0.80;;
24557;SDS011;12726;49.148;8.582;2024-02-15T13:33:05;1.80;;;0.68;;
24557;SDS011;12726;49.148;8.582;2024-02-15T13:35:51;2.42;;;0.73;;
24557;SDS011;12726;49.148;8.582;2024-02-15T13:38:37;3.15;;;0.95;;
24557;SDS011;12726;49.148;8.582;2024-02-15T13:41:23;1.52;;;0.73;;
24557;SDS011;12726;49.148;8.582;2024-02-15T13:44:08;3.17;;;0.60;;
24557;SDS011;12726;49.148;8.582;2024-02-15T13:46:54;1.92;;;0.95;;
24557;SDS011;12726;49.148;8.582;2024-02-15T13:49:40;1.40;;;1.02;;
24557;SDS011;12726;49.148;8.582;2024-02-15T13:52:25;1.73;;;0.73;;
24557;SDS011;12726;49.148;8.582;2024-02-15T13:55:13;2.42;;;0.90;;
24557;SDS011;12726;49.148;8.582;2024-02-15T13:58:00;2.50;;;0.77;;
24557;SDS011;12726;49.148;8.582;2024-02-15T14:00:45;2.22;;;0.80;;
24557;SDS011;12726;49.148;8.582;2024-02-15T14:03:31;1.75;;;0.80;;
24557;SDS011;12726;49.148;8.582;2024-02-15T14:06:17;3.13;;;0.70;;
24557;SDS011;12726;49.148;8.582;2024-02-15T14:09:02;1.95;;;0.85;;
24557;SDS011;12726;49.148;8.582;2024-02-15T14:11:50;2.03;;;0.90;;
24557;SDS011;12726;49.148;8.582;2024-02-15T14:14:36;4.93;;;1.02;;
24557;SDS011;12726;49.148;8.582;2024-02-15T14:17:21;2.35;;;0.85;;
24557;SDS011;12726;49.148;8.582;2024-02-15T14:20:07;5.03;;;0.85;;
24557;SDS011;12726;49.148;8.582;2024-02-15T14:22:56;5.45;;;0.85;;
24557;SDS011;12726;49.148;8.582;2024-02-15T14:25:42;2.53;;;0.80;;
24557;SDS011;12726;49.148;8.582;2024-02-15T14:28:29;2.85;;;1.02;;
24557;SDS011;12726;49.148;8.582;2024-02-15T14:31:17;2.92;;;0.80;;
24557;SDS011;12726;49.148;8.582;2024-02-15T14:34:21;3.40;;;1.15;;
24557;SDS011;12726;49.148;8.582;2024-02-15T14:37:09;2.40;;;0.80;;
24557;SDS011;12726;49.148;8.582;2024-02-15T14:39:54;3.75;;;0.90;;
24557;SDS011;12726;49.148;8.582;2024-02-15T14:42:40;2.55;;;0.88;;
24557;SDS011;12726;49.148;8.582;2024-02-15T14:45:27;6.55;;;1.10;;
24557;SDS011;12726;49.148;8.582;2024-02-15T14:48:13;5.00;;;1.05;;
24557;SDS011;12726;49.148;8.582;2024-02-15T14:51:01;3.35;;;0.80;;
24557;SDS011;12726;49.148;8.582;2024-02-15T14:53:47;5.03;;;0.85;;
24557;SDS011;12726;49.148;8.582;2024-02-15T14:56:32;2.75;;;1.05;;
24557;SDS011;12726;49.148;8.582;2024-02-15T14:59:18;3.85;;;0.88;;
24557;SDS011;12726;49.148;8.582;2024-02-15T15:02:05;4.80;;;0.98;;
24557;SDS011;12726;49.148;8.582;2024-02-15T15:04:52;2.15;;;0.90;;
24557;SDS011;12726;49.148;8.582;2024-02-15T15:08:02;1.67;;;0.75;;
24557;SDS011;12726;49.148;8.582;2024-02-15T15:11:05;3.10;;;0.80;;
24557;SDS011;12726;49.148;8.582;2024-02-15T15:14:13;3.75;;;0.82;;
24557;SDS011;12726;49.148;8.582;2024-02-15T15:16:58;3.45;;;0.98;;
24557;SDS011;12726;49.148;8.582;2024-02-15T15:19:45;3.17;;;0.73;;
24557;SDS011;12726;49.148;8.582;2024-02-15T15:22:30;3.53;;;1.08;;
24557;SDS011;12726;49.148;8.582;2024-02-15T15:25:18;2.85;;;1.15;;
24557;SDS011;12726;49.148;8.582;2024-02-15T15:28:03;2.25;;;1.05;;
24557;SDS011;12726;49.148;8.582;2024-02-15T15:30:49;2.25;;;0.85;;
24557;SDS011;12726;49.148;8.582;2024-02-15T15:33:35;4.43;;;1.20;;
24557;SDS011;12726;49.148;8.582;2024-02-15T15:36:23;3.47;;;1.08;;
24557;SDS011;12726;49.148;8.582;2024-02-15T15:39:08;3.08;;;1.00;;
24557;SDS011;12726;49.148;8.582;2024-02-15T15:41:54;3.95;;;1.05;;
24557;SDS011;12726;49.148;8.582;2024-02-15T15:44:40;1.75;;;0.90;;
24557;SDS011;12726;49.148;8.582;2024-02-15T15:47:25;2.85;;;0.98;;
24557;SDS011;12726;49.148;8.582;2024-02-15T15:50:10;5.95;;;0.90;;
24557;SDS011;12726;49.148;8.582;2024-02-15T15:52:57;4.60;;;1.00;;
24557;SDS011;12726;49.148;8.582;2024-02-15T15:55:42;3.03;;;1.10;;
24557;SDS011;12726;49.148;8.582;2024-02-15T15:58:30;2.60;;;1.30;;
24557;SDS011;12726;49.148;8.582;2024-02-15T16:01:16;2.95;;;0.98;;
24557;SDS011;12726;49.148;8.582;2024-02-15T16:04:03;2.95;;;1.25;;
24557;SDS011;12726;49.148;8.582;2024-02-15T16:06:48;4.07;;;1.17;;
24557;SDS011;12726;49.148;8.582;2024-02-15T16:09:35;1.17;;;0.90;;
24557;SDS011;12726;49.148;8.582;2024-02-15T16:12:20;2.97;;;1.85;;
24557;SDS011;12726;49.148;8.582;2024-02-15T16:15:06;4.30;;;1.45;;
24557;SDS011;12726;49.148;8.582;2024-02-15T16:17:53;4.38;;;1.40;;
24557;SDS011;12726;49.148;8.582;2024-02-15T16:20:38;2.75;;;1.10;;
24557;SDS011;12726;49.148;8.582;2024-02-15T16:23:24;2.38;;;1.38;;
24557;SDS011;12726;49.148;8.582;2024-02-15T16:26:11;0.93;;;0.70;;
24557;SDS011;12726;49.148;8.582;2024-02-15T16:28:56;2.67;;;1.10;;
24557;SDS011;12726;49.148;8.582;2024-02-15T16:31:41;2.30;;;0.80;;
24557;SDS011;12726;49.148;8.582;2024-02-15T16:34:27;2.28;;;1.08;;
24557;SDS011;12726;49.148;8.582;2024-02-15T16:37:12;2.75;;;1.00;;
24557;SDS011;12726;49.148;8.582;2024-02-15T16:39:57;3.65;;;1.90;;
24557;SDS011;12726;49.148;8.582;2024-02-15T16:42:51;4.53;;;1.30;;
24557;SDS011;12726;49.148;8.582;2024-02-15T16:45:39;2.78;;;1.40;;
24557;SDS011;12726;49.148;8.582;2024-02-15T16:48:25;3.25;;;1.77;;
24557;SDS011;12726;49.148;8.582;2024-02-15T16:51:11;2.42;;;1.20;;